Time;durP1;ratioP1;P1;durP2;ratioP2;P2;SDS_P1;SDS_P2;PMS_P1;PMS_P2;Temp;Humidity;BMP_temperature;BMP_pressure;BME280_temperature;BME280_humidity;BME280_pressure;Samples;Min_cycle;Max_cycle;Signal;HPM_P1;HPM_P2
2022/01/18 00:00:03;;;;;;;15.10;2.95;;;;;;;;;;5061471;28;20040;-75
2022/01/18 00:02:29;;;;;;;31.25;4.38;;;;;;;;;;5059464;28;20067;-74
2022/01/18 00:04:55;;;;;;;25.95;3.78;;;;;;;;;;5043639;28;20041;-75
2022/01/18 00:07:21;;;;;;;25.38;3.42;;;;;;;;;;5061369;28;20465;-74
2022/01/18 00:09:48;;;;;;;26.88;3.33;;;;;;;;;;5042612;28;20069;-75
2022/01/18 00:12:42;;;;;;;23.92;3.72;;;;;;;;;;5060387;28;20111;-75
2022/01/18 00:15:29;;;;;;;22.58;3.30;;;;;;;;;;5060975;28;20037;-75
2022/01/18 00:20:40;;;;;;;19.15;3.53;;;;;;;;;;5061399;28;20549;-75
2022/01/18 00:23:08;;;;;;;20.30;3.10;;;;;;;;;;5044413;28;20133;-76
2022/01/18 00:25:36;;;;;;;23.75;3.17;;;;;;;;;;5043337;28;20067;-74
2022/01/18 00:28:03;;;;;;;22.25;3.20;;;;;;;;;;5059600;28;20096;-75
2022/01/18 00:33:20;;;;;;;18.90;2.80;;;;;;;;;;5060833;28;20041;-75
2022/01/18 00:35:51;;;;;;;32.83;5.22;;;;;;;;;;5060715;28;20105;-74
2022/01/18 00:41:18;;;;;;;;;;;;;;;;;;5023917;28;20517;-74
2022/01/18 00:43:45;;;;;;;20.05;3.05;;;;;;;;;;5050931;28;19920;-74
2022/01/18 00:46:14;;;;;;;22.35;3.35;;;;;;;;;;5043533;28;20036;-75
2022/01/18 00:48:41;;;;;;;20.48;3.65;;;;;;;;;;5043850;28;20048;-75
2022/01/18 00:51:12;;;;;;;26.88;3.88;;;;;;;;;;5058338;28;20033;-75
2022/01/18 00:53:39;;;;;;;22.98;3.17;;;;;;;;;;5059073;28;20334;-75
2022/01/18 00:58:42;;;;;;;20.85;2.60;;;;;;;;;;5060001;28;20044;-75
2022/01/18 01:01:09;;;;;;;14.93;2.90;;;;;;;;;;5058518;28;20493;-74
2022/01/18 01:03:35;;;;;;;17.98;3.03;;;;;;;;;;5059287;28;20110;-74
2022/01/18 01:06:02;;;;;;;16.83;3.03;;;;;;;;;;5043397;28;20024;-74
2022/01/18 01:08:28;;;;;;;18.05;3.08;;;;;;;;;;5058014;28;20098;-74
2022/01/18 01:10:54;;;;;;;16.88;3.13;;;;;;;;;;5042908;28;20037;-73
2022/01/18 01:13:20;;;;;;;14.27;3.20;;;;;;;;;;5059719;28;20094;-74
2022/01/18 01:18:33;;;;;;;19.80;3.15;;;;;;;;;;5059121;28;20059;-75
2022/01/18 01:43:19;;;;;;;34.97;4.70;;;;;;;;;;5057799;28;20109;-75
2022/01/18 01:45:45;;;;;;;18.83;3.78;;;;;;;;;;5041283;28;20029;-74
2022/01/18 01:48:11;;;;;;;21.77;3.08;;;;;;;;;;5059237;28;20093;-75
2022/01/18 01:53:11;;;;;;;25.17;3.63;;;;;;;;;;5058171;28;20045;-75
2022/01/18 01:55:37;;;;;;;24.77;5.13;;;;;;;;;;5041981;28;20083;-75
2022/01/18 01:58:03;;;;;;;24.65;3.83;;;;;;;;;;5059539;28;20044;-75
2022/01/18 02:00:29;;;;;;;28.08;4.35;;;;;;;;;;5043080;28;20123;-74
2022/01/18 02:02:55;;;;;;;17.05;3.85;;;;;;;;;;5041797;28;20044;-74
2022/01/18 02:05:22;;;;;;;23.00;4.95;;;;;;;;;;5041169;28;20045;-74
2022/01/18 02:07:49;;;;;;;24.95;5.03;;;;;;;;;;5041163;28;20037;-74
2022/01/18 02:10:15;;;;;;;27.42;3.88;;;;;;;;;;5034546;28;20063;-74
2022/01/18 02:12:41;;;;;;;22.08;4.45;;;;;;;;;;5049595;28;20037;-74
2022/01/18 02:15:15;;;;;;;30.33;4.18;;;;;;;;;;5033056;28;20404;-74
2022/01/18 02:23:16;;;;;;;22.95;3.20;;;;;;;;;;5049412;28;20049;-74
2022/01/18 02:25:42;;;;;;;19.25;3.50;;;;;;;;;;5049547;28;20041;-74
2022/01/18 02:28:08;;;;;;;24.55;4.45;;;;;;;;;;5032938;28;20068;-74
2022/01/18 02:30:34;;;;;;;25.00;3.40;;;;;;;;;;5032834;28;20033;-74
2022/01/18 02:33:00;;;;;;;23.85;4.45;;;;;;;;;;5049487;28;20098;-75
2022/01/18 02:35:26;;;;;;;28.58;4.82;;;;;;;;;;5049646;28;20045;-75
2022/01/18 02:37:52;;;;;;;20.15;3.55;;;;;;;;;;5049777;28;20405;-75
2022/01/18 02:40:18;;;;;;;15.70;2.72;;;;;;;;;;5049340;28;20405;-74
2022/01/18 02:42:55;;;;;;;20.85;3.72;;;;;;;;;;5032826;28;20537;-74
2022/01/18 02:45:21;;;;;;;13.15;4.40;;;;;;;;;;5051163;28;20147;-75
2022/01/18 02:47:47;;;;;;;18.75;2.70;;;;;;;;;;5053136;28;20784;-76
2022/01/18 02:50:13;;;;;;;25.42;3.47;;;;;;;;;;5036761;28;20087;-74
2022/01/18 02:52:39;;;;;;;20.83;3.03;;;;;;;;;;5053011;28;20045;-74
2022/01/18 02:55:06;;;;;;;19.52;2.97;;;;;;;;;;5036279;28;20052;-74
2022/01/18 02:57:41;;;;;;;23.55;3.85;;;;;;;;;;5036045;28;20141;-74
2022/01/18 03:00:18;;;;;;;22.27;4.45;;;;;;;;;;5036235;28;20064;-75
2022/01/18 03:05:28;;;;;;;21.75;4.05;;;;;;;;;;5052868;28;20057;-75
2022/01/18 03:07:54;;;;;;;22.95;3.22;;;;;;;;;;5035892;28;20096;-74
2022/01/18 03:10:20;;;;;;;26.35;3.85;;;;;;;;;;5052706;28;20080;-74
2022/01/18 03:12:46;;;;;;;22.88;4.50;;;;;;;;;;5036032;28;20047;-74
2022/01/18 03:15:12;;;;;;;23.67;3.42;;;;;;;;;;5052754;28;20564;-74
2022/01/18 03:17:39;;;;;;;18.63;4.00;;;;;;;;;;5036146;28;20060;-74
2022/01/18 03:20:06;;;;;;;15.13;2.88;;;;;;;;;;5052270;28;20052;-74
2022/01/18 03:22:33;;;;;;;22.15;3.83;;;;;;;;;;5052481;28;20584;-74
2022/01/18 03:25:12;;;;;;;10.07;2.80;;;;;;;;;;5035783;28;20127;-74
2022/01/18 03:30:23;;;;;;;17.05;2.75;;;;;;;;;;5052506;28;20045;-74
2022/01/18 03:32:49;;;;;;;19.20;3.00;;;;;;;;;;5052495;28;20045;-74
2022/01/18 03:35:15;;;;;;;18.92;2.95;;;;;;;;;;5035770;28;20382;-74
2022/01/18 03:37:42;;;;;;;16.80;3.28;;;;;;;;;;5035520;28;20124;-75
2022/01/18 03:40:09;;;;;;;11.50;2.25;;;;;;;;;;5035697;28;20043;-73
2022/01/18 03:42:41;;;;;;;16.25;2.47;;;;;;;;;;5035586;28;20047;-74
2022/01/18 03:45:07;;;;;;;21.52;3.80;;;;;;;;;;5052067;28;20041;-74
2022/01/18 03:47:34;;;;;;;20.48;2.97;;;;;;;;;;5035084;28;20049;-74
2022/01/18 03:50:00;;;;;;;15.10;2.80;;;;;;;;;;5051807;28;20132;-74
2022/01/18 03:52:26;;;;;;;16.45;2.67;;;;;;;;;;5051740;28;20033;-74
2022/01/18 03:54:53;;;;;;;18.50;2.92;;;;;;;;;;5051618;28;20044;-74
2022/01/18 03:57:19;;;;;;;13.65;2.40;;;;;;;;;;5050755;28;20450;-74
2022/01/18 03:59:46;;;;;;;15.23;2.50;;;;;;;;;;5051604;28;20037;-74
2022/01/18 04:02:12;;;;;;;22.58;3.67;;;;;;;;;;5051562;28;20057;-74
2022/01/18 04:04:38;;;;;;;14.13;2.88;;;;;;;;;;5035125;28;20045;-74
2022/01/18 04:07:05;;;;;;;19.65;2.67;;;;;;;;;;5035009;28;20094;-74
2022/01/18 04:09:31;;;;;;;22.95;3.03;;;;;;;;;;5051777;28;20037;-74
2022/01/18 04:11:57;;;;;;;16.80;2.95;;;;;;;;;;5051474;28;20040;-75
2022/01/18 04:14:24;;;;;;;12.13;2.33;;;;;;;;;;5051806;28;20048;-74
2022/01/18 04:25:49;;;;;;;13.85;2.90;;;;;;;;;;5051617;28;20450;-75
2022/01/18 04:27:43;;;;;;;18.55;2.55;;;;;;;;;;5051342;28;20064;-75
2022/01/18 04:30:10;;;;;;;12.23;1.85;;;;;;;;;;5051143;28;20138;-75
2022/01/18 04:32:36;;;;;;;17.70;2.35;;;;;;;;;;5034823;28;20481;-74
2022/01/18 04:35:03;;;;;;;9.70;1.80;;;;;;;;;;5050952;28;20048;-75
2022/01/18 04:37:29;;;;;;;9.18;1.88;;;;;;;;;;5034601;28;20037;-75
2022/01/18 04:39:55;;;;;;;19.35;2.05;;;;;;;;;;5050928;28;20051;-75
2022/01/18 04:42:57;;;;;;;7.90;1.70;;;;;;;;;;5050822;28;20048;-75
2022/01/18 04:50:52;;;;;;;9.98;2.15;;;;;;;;;;5050664;28;20056;-75
2022/01/18 04:53:19;;;;;;;10.98;2.38;;;;;;;;;;5034287;28;20033;-75
2022/01/18 04:55:45;;;;;;;11.00;1.60;;;;;;;;;;5050493;28;20091;-74
2022/01/18 04:58:11;;;;;;;8.95;1.85;;;;;;;;;;5034054;28;20040;-74
2022/01/18 05:00:37;;;;;;;13.38;2.40;;;;;;;;;;5050346;28;20041;-74
2022/01/18 05:03:03;;;;;;;5.53;1.05;;;;;;;;;;5050737;28;20401;-74
2022/01/18 05:05:33;;;;;;;10.02;1.95;;;;;;;;;;5033885;28;20036;-74
2022/01/18 05:08:02;;;;;;;8.80;1.55;;;;;;;;;;5050312;28;20060;-74
2022/01/18 05:10:29;;;;;;;7.82;1.40;;;;;;;;;;5034042;28;20052;-74
2022/01/18 05:12:57;;;;;;;9.38;1.75;;;;;;;;;;5050472;28;20132;-74
2022/01/18 05:18:59;;;;;;;12.73;2.00;;;;;;;;;;5050680;28;20044;-74
2022/01/18 05:21:15;;;;;;;11.60;1.77;;;;;;;;;;5049508;28;20155;-74
2022/01/18 05:23:41;;;;;;;9.95;1.92;;;;;;;;;;5050116;28;20397;-74
2022/01/18 05:26:07;;;;;;;8.48;2.03;;;;;;;;;;5033407;28;20036;-74
2022/01/18 05:28:33;;;;;;;5.53;1.58;;;;;;;;;;5050211;28;20067;-74
2022/01/18 05:30:59;;;;;;;7.50;1.70;;;;;;;;;;5033672;28;20405;-74
2022/01/18 05:33:25;;;;;;;9.52;1.63;;;;;;;;;;5050391;28;20048;-74
2022/01/18 05:35:51;;;;;;;9.82;1.20;;;;;;;;;;5033320;28;20041;-74
2022/01/18 05:38:17;;;;;;;7.97;1.23;;;;;;;;;;5050018;28;20412;-74
2022/01/18 05:40:43;;;;;;;7.15;1.25;;;;;;;;;;5049946;28;20051;-74
2022/01/18 05:43:09;;;;;;;8.77;1.67;;;;;;;;;;5049992;28;20489;-74
2022/01/18 05:45:35;;;;;;;9.80;2.03;;;;;;;;;;5033331;28;20037;-74
2022/01/18 05:48:01;;;;;;;8.32;1.92;;;;;;;;;;5033383;28;20043;-74
2022/01/18 05:50:27;;;;;;;9.32;1.55;;;;;;;;;;5033332;28;20111;-74
2022/01/18 05:52:53;;;;;;;12.85;3.33;;;;;;;;;;5049613;28;20099;-74
2022/01/18 05:55:19;;;;;;;8.13;1.73;;;;;;;;;;5033255;28;20037;-74
2022/01/18 05:57:45;;;;;;;15.18;3.00;;;;;;;;;;5050068;28;20478;-74
2022/01/18 06:00:19;;;;;;;4.95;1.38;;;;;;;;;;5032689;28;20385;-74
2022/01/18 06:03:01;;;;;;;11.15;1.65;;;;;;;;;;5033113;28;20053;-74
2022/01/18 06:08:13;;;;;;;7.95;1.25;;;;;;;;;;5049852;28;20037;-74
2022/01/18 06:10:39;;;;;;;13.95;2.45;;;;;;;;;;5049798;28;20083;-74
2022/01/18 06:13:07;;;;;;;10.32;1.90;;;;;;;;;;5050013;28;20443;-74
2022/01/18 06:15:34;;;;;;;8.07;1.45;;;;;;;;;;5049691;28;20044;-74
2022/01/18 06:18:00;;;;;;;8.93;1.38;;;;;;;;;;5049662;28;20132;-74
2022/01/18 06:20:26;;;;;;;5.15;1.15;;;;;;;;;;5035111;28;20145;-74
2022/01/18 06:22:52;;;;;;;8.80;1.02;;;;;;;;;;5053669;28;20610;-74
2022/01/18 06:25:21;;;;;;;4.85;0.90;;;;;;;;;;5053592;28;20056;-75
2022/01/18 06:27:48;;;;;;;5.05;1.45;;;;;;;;;;5037171;28;20040;-74
2022/01/18 06:30:14;;;;;;;7.05;1.48;;;;;;;;;;5037211;28;20043;-74
2022/01/18 06:32:45;;;;;;;6.60;1.55;;;;;;;;;;5053506;28;20040;-74
2022/01/18 06:35:12;;;;;;;4.85;0.95;;;;;;;;;;5036784;28;20040;-74
2022/01/18 06:37:39;;;;;;;11.18;1.42;;;;;;;;;;5036649;28;20041;-74
2022/01/18 06:40:05;;;;;;;7.18;1.15;;;;;;;;;;5053284;28;20448;-74
2022/01/18 06:42:32;;;;;;;8.68;3.28;;;;;;;;;;5053164;28;20072;-74
2022/01/18 06:44:58;;;;;;;5.15;1.02;;;;;;;;;;5048904;28;20128;-74
2022/01/18 06:47:24;;;;;;;3.03;1.10;;;;;;;;;;5049971;28;20136;-74
2022/01/18 06:49:50;;;;;;;7.28;1.80;;;;;;;;;;5050067;28;20045;-72
2022/01/18 06:52:16;;;;;;;11.18;2.25;;;;;;;;;;5034706;28;20129;-74
2022/01/18 06:54:42;;;;;;;8.82;2.28;;;;;;;;;;5034645;28;20053;-74
2022/01/18 06:57:08;;;;;;;8.25;2.03;;;;;;;;;;5049954;28;20098;-74
2022/01/18 06:59:34;;;;;;;8.18;2.60;;;;;;;;;;5049454;28;20456;-74
2022/01/18 07:02:00;;;;;;;8.98;3.05;;;;;;;;;;5048763;28;20088;-73
2022/01/18 07:04:27;;;;;;;12.90;3.20;;;;;;;;;;5049385;28;20049;-74
2022/01/18 07:06:53;;;;;;;5.82;2.35;;;;;;;;;;5049495;28;20045;-74
2022/01/18 07:09:28;;;;;;;8.48;2.55;;;;;;;;;;5049358;28;20033;-74
2022/01/18 07:11:56;;;;;;;6.63;1.80;;;;;;;;;;5048683;28;20051;-73
2022/01/18 07:14:22;;;;;;;8.07;1.80;;;;;;;;;;5033335;28;20098;-74
2022/01/18 07:16:48;;;;;;;11.80;2.35;;;;;;;;;;5040630;28;20048;-73
2022/01/18 07:19:14;;;;;;;7.03;1.20;;;;;;;;;;5058689;28;20040;-74
2022/01/18 07:21:40;;;;;;;6.63;2.20;;;;;;;;;;5042260;28;20405;-73
2022/01/18 07:24:16;;;;;;;8.40;2.40;;;;;;;;;;5056739;28;20486;-73
2022/01/18 07:26:43;;;;;;;6.03;1.70;;;;;;;;;;5057492;28;20496;-74
2022/01/18 07:29:09;;;;;;;3.47;1.40;;;;;;;;;;5058850;28;20037;-74
2022/01/18 07:31:35;;;;;;;6.07;1.27;;;;;;;;;;5041200;28;20041;-74
2022/01/18 07:34:01;;;;;;;8.27;1.13;;;;;;;;;;5057374;28;20439;-74
2022/01/18 07:36:27;;;;;;;5.32;1.40;;;;;;;;;;5058376;28;20344;-74
2022/01/18 07:38:55;;;;;;;6.28;1.30;;;;;;;;;;5040691;28;20041;-74
2022/01/18 07:41:21;;;;;;;11.82;1.65;;;;;;;;;;5057211;28;20542;-74
2022/01/18 07:43:47;;;;;;;6.63;1.02;;;;;;;;;;5041765;28;20048;-74
2022/01/18 07:46:13;;;;;;;7.20;1.60;;;;;;;;;;5057241;28;20546;-74
2022/01/18 07:48:39;;;;;;;6.63;1.40;;;;;;;;;;5057035;28;20563;-73
2022/01/18 07:51:05;;;;;;;11.98;1.70;;;;;;;;;;5058576;28;20400;-74
2022/01/18 07:53:31;;;;;;;6.65;1.23;;;;;;;;;;5056640;28;20051;-74
2022/01/18 07:55:57;;;;;;;8.57;1.38;;;;;;;;;;5057531;28;20039;-74
2022/01/18 07:58:23;;;;;;;9.10;1.73;;;;;;;;;;5041862;28;20044;-74
2022/01/18 08:00:49;;;;;;;7.22;1.70;;;;;;;;;;5055845;28;20145;-74
2022/01/18 08:03:15;;;;;;;5.72;1.40;;;;;;;;;;5057546;28;20580;-74
2022/01/18 08:05:41;;;;;;;11.75;1.48;;;;;;;;;;5041450;28;20127;-73
2022/01/18 08:08:07;;;;;;;9.40;1.60;;;;;;;;;;5039778;28;20041;-73
2022/01/18 08:10:33;;;;;;;12.30;1.42;;;;;;;;;;5057768;28;20090;-73
2022/01/18 08:13:01;;;;;;;7.68;1.20;;;;;;;;;;5057009;28;20033;-74
2022/01/18 08:15:36;;;;;;;6.05;1.30;;;;;;;;;;5055963;28;20425;-74
2022/01/18 08:18:02;;;;;;;7.82;1.20;;;;;;;;;;5039492;28;20039;-74
2022/01/18 08:20:28;;;;;;;7.72;1.25;;;;;;;;;;5057669;28;20040;-74
2022/01/18 08:22:54;;;;;;;8.60;1.42;;;;;;;;;;5056699;28;20075;-74
2022/01/18 08:25:22;;;;;;;4.53;1.08;;;;;;;;;;5059254;28;20036;-74
2022/01/18 08:27:48;;;;;;;7.40;1.35;;;;;;;;;;5060914;28;20044;-74
2022/01/18 08:30:17;;;;;;;8.52;2.13;;;;;;;;;;5043206;28;20050;-74
2022/01/18 08:32:43;;;;;;;7.03;1.40;;;;;;;;;;5061728;28;20040;-74
2022/01/18 08:35:09;;;;;;;13.43;1.73;;;;;;;;;;5042077;28;20041;-73
2022/01/18 08:37:35;;;;;;;7.68;1.30;;;;;;;;;;5060353;28;20051;-73
2022/01/18 08:40:01;;;;;;;7.75;1.85;;;;;;;;;;5043863;28;20033;-73
2022/01/18 08:42:27;;;;;;;6.38;1.52;;;;;;;;;;5058017;28;20049;-73
2022/01/18 08:44:53;;;;;;;7.00;1.80;;;;;;;;;;5043515;28;20043;-74
2022/01/18 08:47:20;;;;;;;7.32;1.83;;;;;;;;;;5059889;28;20044;-73
2022/01/18 08:49:46;;;;;;;7.90;1.52;;;;;;;;;;5041919;28;20040;-74
2022/01/18 08:52:12;;;;;;;10.80;1.95;;;;;;;;;;5060259;28;20123;-73
2022/01/18 08:54:39;;;;;;;9.30;2.60;;;;;;;;;;5042835;28;20512;-73
2022/01/18 08:57:05;;;;;;;12.25;1.95;;;;;;;;;;5058087;28;20128;-74
2022/01/18 08:59:35;;;;;;;6.43;1.98;;;;;;;;;;5042837;28;20036;-73
2022/01/18 09:02:01;;;;;;;11.73;2.00;;;;;;;;;;5056394;28;20061;-73
2022/01/18 09:04:27;;;;;;;7.00;1.67;;;;;;;;;;5054870;28;20057;-73
2022/01/18 09:06:54;;;;;;;11.38;2.67;;;;;;;;;;5056550;28;20075;-73
2022/01/18 09:09:20;;;;;;;6.00;2.22;;;;;;;;;;5056198;28;20104;-72
2022/01/18 09:11:46;;;;;;;9.82;1.92;;;;;;;;;;5055161;28;20075;-72
2022/01/18 09:14:13;;;;;;;10.32;1.92;;;;;;;;;;5056499;28;20040;-73
2022/01/18 09:16:39;;;;;;;9.52;2.45;;;;;;;;;;5039008;28;20728;-73
2022/01/18 09:19:05;;;;;;;14.32;2.50;;;;;;;;;;5054533;28;20045;-74
2022/01/18 09:21:32;;;;;;;18.88;2.70;;;;;;;;;;5056564;28;20037;-73
2022/01/18 09:23:59;;;;;;;10.13;1.90;;;;;;;;;;5055956;28;20076;-73
2022/01/18 09:26:25;;;;;;;12.88;2.45;;;;;;;;;;5038245;28;20124;-74
2022/01/18 09:28:51;;;;;;;7.60;2.17;;;;;;;;;;5039581;28;20067;-74
2022/01/18 09:31:19;;;;;;;9.85;1.90;;;;;;;;;;5055518;28;20037;-73
2022/01/18 09:33:44;;;;;;;7.85;1.88;;;;;;;;;;5054439;28;20795;-73
2022/01/18 09:36:10;;;;;;;8.18;2.30;;;;;;;;;;5057365;28;20040;-74
2022/01/18 09:38:36;;;;;;;6.47;2.00;;;;;;;;;;5055877;28;20552;-73
2022/01/18 09:41:09;;;;;;;7.65;2.10;;;;;;;;;;5055730;28;20082;-73
2022/01/18 09:43:35;;;;;;;10.45;2.10;;;;;;;;;;5038411;28;20128;-74
2022/01/18 09:46:01;;;;;;;10.35;2.58;;;;;;;;;;5054963;28;20488;-74
2022/01/18 09:48:27;;;;;;;10.52;2.90;;;;;;;;;;5056538;28;20052;-74
2022/01/18 09:50:55;;;;;;;9.75;2.05;;;;;;;;;;5038752;28;20071;-73
2022/01/18 09:53:21;;;;;;;8.43;2.25;;;;;;;;;;5054779;28;20048;-74
2022/01/18 09:55:49;;;;;;;6.28;1.60;;;;;;;;;;5058983;28;20101;-74
2022/01/18 09:58:15;;;;;;;6.20;1.95;;;;;;;;;;5059231;28;20501;-73
2022/01/18 10:00:42;;;;;;;8.85;2.10;;;;;;;;;;5058827;28;20492;-74
2022/01/18 10:03:22;;;;;;;7.55;2.17;;;;;;;;;;5058296;28;20076;-74
2022/01/18 10:05:51;;;;;;;8.55;1.70;;;;;;;;;;5050379;28;20048;-73
2022/01/18 10:08:19;;;;;;;7.85;2.05;;;;;;;;;;5053940;28;20075;-74
2022/01/18 10:10:49;;;;;;;6.50;1.67;;;;;;;;;;5053615;28;20400;-74
2022/01/18 10:13:34;;;;;;;7.30;1.88;;;;;;;;;;5053753;28;20052;-74
2022/01/18 10:16:21;;;;;;;8.90;1.80;;;;;;;;;;5070366;28;20508;-73
2022/01/18 10:18:49;;;;;;;7.93;2.00;;;;;;;;;;5053569;28;20127;-74
2022/01/18 10:21:24;;;;;;;7.25;1.88;;;;;;;;;;5054876;28;20590;-74
2022/01/18 10:23:51;;;;;;;5.70;1.35;;;;;;;;;;5054565;28;20044;-74
2022/01/18 10:26:22;;;;;;;6.22;1.40;;;;;;;;;;5041179;28;20052;-74
2022/01/18 10:28:49;;;;;;;2.85;0.98;;;;;;;;;;5058896;28;20051;-74
2022/01/18 10:31:26;;;;;;;5.93;1.33;;;;;;;;;;5061868;28;20063;-74
2022/01/18 10:34:11;;;;;;;4.53;1.20;;;;;;;;;;5062692;28;20045;-73
2022/01/18 10:36:50;;;;;;;3.28;1.02;;;;;;;;;;5061983;28;20059;-74
2022/01/18 10:39:20;;;;;;;7.03;1.70;;;;;;;;;;5063143;28;20036;-72
2022/01/18 10:41:46;;;;;;;8.10;1.30;;;;;;;;;;5045221;28;20501;-73
2022/01/18 10:44:15;;;;;;;8.75;1.40;;;;;;;;;;5061418;28;20063;-74
2022/01/18 10:46:44;;;;;;;8.65;1.13;;;;;;;;;;5046389;28;20068;-74
2022/01/18 10:49:10;;;;;;;4.28;1.40;;;;;;;;;;5062333;28;20064;-74
2022/01/18 10:51:38;;;;;;;9.23;1.40;;;;;;;;;;5060913;28;20060;-74
2022/01/18 10:54:05;;;;;;;8.80;1.23;;;;;;;;;;5063124;28;20044;-73
2022/01/18 10:56:42;;;;;;;6.97;1.55;;;;;;;;;;5061204;28;20045;-74
2022/01/18 10:59:08;;;;;;;8.30;1.38;;;;;;;;;;5061909;28;20429;-74
2022/01/18 11:01:35;;;;;;;9.05;1.40;;;;;;;;;;5044181;28;20053;-74
2022/01/18 11:04:07;;;;;;;8.98;2.25;;;;;;;;;;5045952;28;20044;-72
2022/01/18 11:06:34;;;;;;;9.38;2.08;;;;;;;;;;5061257;28;20444;-73
2022/01/18 11:09:13;;;;;;;8.25;1.88;;;;;;;;;;5043727;28;20044;-73
2022/01/18 11:11:43;;;;;;;8.73;1.30;;;;;;;;;;5043806;28;20038;-73
2022/01/18 11:14:11;;;;;;;4.55;1.73;;;;;;;;;;5044961;28;20749;-74
2022/01/18 11:16:41;;;;;;;7.85;1.58;;;;;;;;;;5062455;28;20045;-73
2022/01/18 11:19:31;;;;;;;8.15;1.70;;;;;;;;;;5061606;28;20044;-73
2022/01/18 11:22:02;;;;;;;19.08;2.45;;;;;;;;;;5062458;28;20052;-73
2022/01/18 11:24:29;;;;;;;6.65;1.80;;;;;;;;;;5061132;28;20412;-73
2022/01/18 11:26:55;;;;;;;11.70;1.73;;;;;;;;;;5060395;28;20120;-74
2022/01/18 11:29:22;;;;;;;9.23;2.72;;;;;;;;;;5045812;28;20032;-73
2022/01/18 11:31:52;;;;;;;9.07;1.60;;;;;;;;;;5057634;28;20040;-73
2022/01/18 11:34:25;;;;;;;11.68;2.13;;;;;;;;;;5052566;28;20043;-74
2022/01/18 11:36:57;;;;;;;10.45;2.65;;;;;;;;;;5052392;28;20040;-74
2022/01/18 11:39:28;;;;;;;11.32;1.83;;;;;;;;;;5052476;28;20083;-73
2022/01/18 11:42:04;;;;;;;8.13;1.73;;;;;;;;;;5052103;28;20127;-73
2022/01/18 11:44:31;;;;;;;14.25;2.78;;;;;;;;;;5051563;28;20077;-72
2022/01/18 11:46:58;;;;;;;10.43;2.55;;;;;;;;;;5032217;28;20057;-73
2022/01/18 11:49:25;;;;;;;7.35;2.22;;;;;;;;;;5048351;28;20047;-73
2022/01/18 11:51:55;;;;;;;12.90;2.90;;;;;;;;;;5032515;28;20515;-73
2022/01/18 11:57:24;;;;;;;11.50;2.03;;;;;;;;;;5048797;28;20056;-73
2022/01/18 11:59:54;;;;;;;8.73;2.22;;;;;;;;;;5032196;28;20041;-73
2022/01/18 12:02:39;;;;;;;9.75;2.28;;;;;;;;;;5047958;28;20460;-73
2022/01/18 12:05:13;;;;;;;7.07;2.22;;;;;;;;;;5031713;28;20501;-74
2022/01/18 12:07:44;;;;;;;8.48;2.65;;;;;;;;;;5048219;28;20056;-74
2022/01/18 12:10:42;;;;;;;6.35;2.00;;;;;;;;;;5048357;28;20078;-74
2022/01/18 12:13:13;;;;;;;7.78;1.98;;;;;;;;;;5031865;28;20563;-73
2022/01/18 12:15:46;;;;;;;12.80;2.67;;;;;;;;;;5048123;28;20527;-74
2022/01/18 12:18:14;;;;;;;5.30;2.30;;;;;;;;;;5047849;28;20091;-74
2022/01/18 12:20:44;;;;;;;8.05;1.95;;;;;;;;;;5048334;28;20045;-73
2022/01/18 12:23:18;;;;;;;7.80;2.30;;;;;;;;;;5031202;28;20118;-73
2022/01/18 12:26:14;;;;;;;8.50;2.33;;;;;;;;;;5047908;28;20041;-74
2022/01/18 12:34:31;;;;;;;7.75;1.73;;;;;;;;;;5058409;28;20076;-73
2022/01/18 12:36:57;;;;;;;8.55;2.33;;;;;;;;;;5058323;28;20297;-73
2022/01/18 12:39:24;;;;;;;6.32;2.03;;;;;;;;;;5055972;28;20040;-73
2022/01/18 12:41:54;;;;;;;8.27;2.45;;;;;;;;;;5040551;28;20105;-73
2022/01/18 12:44:21;;;;;;;4.97;2.05;;;;;;;;;;5057650;28;20044;-73
2022/01/18 12:46:57;;;;;;;12.88;3.03;;;;;;;;;;5056362;28;20060;-73
2022/01/18 12:49:23;;;;;;;9.43;2.40;;;;;;;;;;5055056;28;20401;-73
2022/01/18 12:51:56;;;;;;;8.68;2.20;;;;;;;;;;5039613;28;20044;-73
2022/01/18 12:54:35;;;;;;;9.80;2.38;;;;;;;;;;5058017;28;20056;-73
2022/01/18 12:57:21;;;;;;;13.93;3.15;;;;;;;;;;5038373;28;20045;-73
2022/01/18 13:00:03;;;;;;;8.90;2.33;;;;;;;;;;5043905;28;20052;-73
2022/01/18 13:02:29;;;;;;;9.32;2.22;;;;;;;;;;5043481;28;20056;-73
2022/01/18 13:05:04;;;;;;;8.82;2.05;;;;;;;;;;5060114;28;20059;-73
2022/01/18 13:07:30;;;;;;;8.82;2.05;;;;;;;;;;5059548;28;20037;-73
2022/01/18 13:10:00;;;;;;;5.85;1.50;;;;;;;;;;5041902;28;20037;-74
2022/01/18 13:12:33;;;;;;;4.57;1.75;;;;;;;;;;5043596;28;20037;-73
2022/01/18 13:15:00;;;;;;;9.60;2.10;;;;;;;;;;5043769;28;20485;-74
2022/01/18 13:26:46;;;;;;;6.10;1.40;;;;;;;;;;5005959;28;20067;-74
2022/01/18 13:29:17;;;;;;;6.65;2.38;;;;;;;;;;5050964;28;20053;-73
2022/01/18 13:31:46;;;;;;;7.15;2.05;;;;;;;;;;5059320;28;20048;-74
2022/01/18 13:34:14;;;;;;;6.95;1.90;;;;;;;;;;5041465;28;20044;-72
2022/01/18 13:36:55;;;;;;;4.38;1.73;;;;;;;;;;5042894;28;20099;-74
2022/01/18 13:39:26;;;;;;;5.70;1.70;;;;;;;;;;5058742;28;20116;-73
2022/01/18 13:41:53;;;;;;;12.38;2.22;;;;;;;;;;5057973;28;20119;-73
2022/01/18 13:44:19;;;;;;;8.85;1.95;;;;;;;;;;5042864;28;20040;-73
2022/01/18 13:46:45;;;;;;;7.88;2.15;;;;;;;;;;5059397;28;20051;-73
2022/01/18 13:49:11;;;;;;;7.32;2.10;;;;;;;;;;5058158;28;20067;-74
2022/01/18 13:51:37;;;;;;;6.85;2.35;;;;;;;;;;5043463;28;20078;-73
2022/01/18 13:54:07;;;;;;;7.75;1.98;;;;;;;;;;5064943;28;20047;-74
2022/01/18 13:56:33;;;;;;;16.80;3.30;;;;;;;;;;5070335;28;20044;-74
2022/01/18 13:59:00;;;;;;;15.60;3.03;;;;;;;;;;5070444;28;20044;-73
2022/01/18 14:01:28;;;;;;;12.85;2.60;;;;;;;;;;5067210;28;20060;-74
2022/01/18 14:03:54;;;;;;;9.63;2.60;;;;;;;;;;5043021;28;20798;-74
2022/01/18 14:06:21;;;;;;;10.05;2.60;;;;;;;;;;5041769;28;20033;-73
2022/01/18 14:08:51;;;;;;;8.13;2.13;;;;;;;;;;5040629;28;20467;-74
2022/01/18 14:11:18;;;;;;;8.37;2.83;;;;;;;;;;5054675;28;20643;-73
2022/01/18 14:13:44;;;;;;;14.15;2.40;;;;;;;;;;5054699;28;20056;-74
2022/01/18 14:16:27;;;;;;;11.32;3.42;;;;;;;;;;5039085;28;20041;-74
2022/01/18 14:19:14;;;;;;;5.88;2.28;;;;;;;;;;5056229;28;20824;-74
2022/01/18 14:21:43;;;;;;;11.10;3.00;;;;;;;;;;5055862;28;20435;-74
2022/01/18 14:24:41;;;;;;;11.43;2.55;;;;;;;;;;5055978;28;20041;-74
2022/01/18 14:27:10;;;;;;;13.02;2.58;;;;;;;;;;5022976;28;20048;-74
2022/01/18 14:29:42;;;;;;;13.75;3.53;;;;;;;;;;5054233;28;20040;-74
2022/01/18 14:32:12;;;;;;;12.77;3.55;;;;;;;;;;5038688;28;20044;-75
2022/01/18 14:34:39;;;;;;;11.48;2.88;;;;;;;;;;5054725;28;20484;-75
2022/01/18 14:37:06;;;;;;;13.35;3.10;;;;;;;;;;5054601;28;20040;-74
2022/01/18 14:39:32;;;;;;;11.60;3.35;;;;;;;;;;5035482;28;20045;-74
2022/01/18 14:42:02;;;;;;;12.00;3.13;;;;;;;;;;5048787;28;20047;-75
2022/01/18 14:45:32;;;;;;;9.83;3.00;;;;;;;;;;5069599;28;20062;-75
2022/01/18 14:47:26;;;;;;;11.25;2.85;;;;;;;;;;5060742;28;20283;-75
2022/01/18 14:49:53;;;;;;;15.68;4.00;;;;;;;;;;5063476;28;20048;-74
2022/01/18 14:52:19;;;;;;;11.60;2.90;;;;;;;;;;5048262;28;20450;-74
2022/01/18 14:54:44;;;;;;;17.83;3.97;;;;;;;;;;5053248;28;20051;-75
2022/01/18 14:57:12;;;;;;;12.43;4.20;;;;;;;;;;5053281;28;20094;-75
2022/01/18 14:59:38;;;;;;;12.57;3.63;;;;;;;;;;5069471;28;20053;-74
2022/01/18 15:02:04;;;;;;;13.90;4.53;;;;;;;;;;5052649;28;20079;-75
2022/01/18 15:04:30;;;;;;;15.95;4.55;;;;;;;;;;5069406;28;20044;-75
2022/01/18 15:06:56;;;;;;;11.93;3.60;;;;;;;;;;5052828;28;20041;-75
2022/01/18 15:09:27;;;;;;;11.50;4.30;;;;;;;;;;5069821;28;20039;-74
2022/01/18 15:11:53;;;;;;;9.55;3.90;;;;;;;;;;5052723;28;20065;-74
2022/01/18 15:14:20;;;;;;;17.27;4.22;;;;;;;;;;5068883;28;20347;-75
2022/01/18 15:16:46;;;;;;;16.63;4.35;;;;;;;;;;5049214;28;20048;-75
2022/01/18 15:19:12;;;;;;;20.90;3.85;;;;;;;;;;5058649;28;20475;-75
2022/01/18 15:21:38;;;;;;;10.82;3.50;;;;;;;;;;5041467;28;20060;-74
2022/01/18 15:24:04;;;;;;;9.63;3.28;;;;;;;;;;5056755;28;20576;-73
2022/01/18 15:26:30;;;;;;;11.40;3.35;;;;;;;;;;5041705;28;20123;-74
2022/01/18 15:28:56;;;;;;;18.08;4.38;;;;;;;;;;5041441;28;20198;-74
2022/01/18 15:31:22;;;;;;;15.80;4.43;;;;;;;;;;5056939;28;20036;-74
2022/01/18 15:33:48;;;;;;;15.13;4.32;;;;;;;;;;5043032;28;20476;-74
2022/01/18 15:36:14;;;;;;;14.15;4.53;;;;;;;;;;5061089;28;20234;-75
2022/01/18 15:38:40;;;;;;;11.48;3.95;;;;;;;;;;5060353;28;20051;-74
2022/01/18 15:41:06;;;;;;;11.48;4.00;;;;;;;;;;5061877;28;20045;-74
2022/01/18 15:43:32;;;;;;;13.13;5.50;;;;;;;;;;5060374;28;20041;-74
2022/01/18 15:46:00;;;;;;;18.70;4.85;;;;;;;;;;5060496;28;20040;-75
2022/01/18 15:48:26;;;;;;;11.13;4.60;;;;;;;;;;5061962;28;20029;-74
2022/01/18 15:50:52;;;;;;;16.77;4.32;;;;;;;;;;5060529;28;20060;-74
2022/01/18 15:53:18;;;;;;;19.10;4.55;;;;;;;;;;5042968;28;20134;-74
2022/01/18 15:55:47;;;;;;;18.25;4.88;;;;;;;;;;5045007;28;20146;-74
2022/01/18 15:58:14;;;;;;;14.25;4.80;;;;;;;;;;5060542;28;20044;-75
2022/01/18 16:00:42;;;;;;;21.75;5.35;;;;;;;;;;5043410;28;20036;-74
2022/01/18 16:03:09;;;;;;;11.45;3.50;;;;;;;;;;5059369;28;20049;-73
2022/01/18 16:05:37;;;;;;;15.07;4.20;;;;;;;;;;5060906;28;20045;-75
2022/01/18 16:08:03;;;;;;;18.60;4.07;;;;;;;;;;5061708;28;20079;-74
2022/01/18 16:10:29;;;;;;;13.95;4.63;;;;;;;;;;5042238;28;20040;-73